首页
METAR-TAF:

METAR-TAF

机场 :

尼斯蓝色海岸机场

尼斯, 法国

纬度: 43-39N, 经度: 007-12E, 海拔: 4米

当前天气观测

该预报发布于15分钟前的21:30 UTC
静风
温度 13°C
湿度 88%
气压 1012 hPa
能见度10公里或以上
散云层高于6400英尺
阴天层高于13000英尺

METAR: LFMN 292130Z AUTO 00000KT 9999 SCT064 OVC130 13/11 Q1012 BECMG 33010KT

时间: 23:45 (21:45 UTC)

预报

该预报发布于1小时和45分钟前的20:00 UTC
预报有效从29日的 21点(UTC)到 31日的 03点(UTC)
风速10节,风向北转西北
能见度10公里或以上
少量云层高于1400英尺
散云层高于2000英尺
成为
从 29日的 21点(UTC)到 29日的 24点(UTC)
多云层高于2000英尺
几率 30% :
短暂存在
从 30日的 00点(UTC)到 30日的 05点(UTC)
多云层高于1200英尺
散云层高于2000英尺, 塔状积云.
阵雨
短暂存在
从 30日的 05点(UTC)到 30日的 11点(UTC)
多云层高于1400英尺
散云层高于2000英尺, 塔状积云.
阵雨
成为
从 30日的 09点(UTC)到 30日的 11点(UTC)
风速6节,风向东南
散云层高于3000英尺
几率 30% :
短暂存在
从 30日的 11点(UTC)到 30日的 18点(UTC)
散云层高于3000英尺, 塔状积云.
阵雨
短暂存在
从 30日的 12点(UTC)到 30日的 17点(UTC)
少量云层高于3000英尺, 积雨云.
成为
从 30日的 18点(UTC)到 30日的 21点(UTC)
风速10节,风向北转西北
能见度10公里或以上
1500米以下无云,无积雨云
短暂存在
从 30日的 21点(UTC)到 31日的 03点(UTC)
多云层高于3000英尺

TAF: LFMN 292000Z 2921/3103 33010KT 9999 FEW014 SCT020 BECMG 2921/2924 BKN020 PROB30 TEMPO 3000/3005 SHRA BKN012 SCT020TCU TEMPO 3005/3011 SHRA BKN014 SCT020TCU BECMG 3009/3011 14006KT SCT030 PROB30 TEMPO 3011/3018 SHRA SCT030TCU TEMPO 3012/3017 FEW030CB BECMG 3018/3021 33010KT CAVOK TEMPO 3021/3103 BKN030

超过4000个机场的气象观测和天气预报(METAR&TAF报告)。

可查询的气象台以黄色和红色小点在地图上表示。

将鼠标移到小点上方,可查看气象台名称。

然后点击查看天气观测和预报。

如需切换地图:点击带黑十字的绿色按钮放大地图;点击带横线的绿色按钮缩小地图;或者点击绿色箭头查看邻近地区的地图。


METAR-TAF: